Coulee, North Dakota
Current Conditions -  °F | °C
As of 9:55 PM on Saturday 25 Oct 2014 (Local Time) from K08D Reporting Station
NA  
Wind Chill: 38°   Ceiling: NA
Heat Index: 45°   Visibility: 10mi
Dew Point: 32°   Wind: 13mph
Humidity: 61%   Direction: 140°SE
Pressure: 29.88"   Gusts: 17mph
Location:  48.4598°N, 101.907°W
Report Text: K08D 260255Z AUTO 14011G15KT 10SM 07/00 A2988 RMK AO2
Loading
Personal Weather Stations






























Interactive Weather Map
Tropical Storm Tracking
New forecast layout! Learn more

10-Day Weather Forecast

Advertisements
Track Severe Weather on mobile